Alamosa, Colorado
Current Conditions -  °F | °C
As of 9:52 AM on Saturday 25 Oct 2014 (Local Time) from KALS Reporting Station
Clear Clear  
Wind Chill:   Ceiling: Unl
Heat Index:   Visibility: 10mi
Dew Point: -3°   Wind: 3mph
Humidity: 44%   Direction: NA
Pressure: 30.44"   Gusts: NA
Location:  37.47°N, 105.87°W
Report Text: KALS 251552Z AUTO VRB03KT 10SM CLR 09/M03 A3044 RMK AO2 SLP279 T00891028
Loading
Personal Weather Stations






























Interactive Weather Map
Tropical Storm Tracking
New forecast layout! Learn more

10-Day Weather Forecast

Advertisements
Track Severe Weather on mobile